sensor_id;sensor_type;location;lat;lon;timestamp;P1;durP1;ratioP1;P2;durP2;ratioP2
36599;SDS011;35385;55.668;37.508;2023-01-15T00:00:38;17.27;;;10.48;;
36599;SDS011;35385;55.668;37.508;2023-01-15T00:01:39;17.83;;;10.20;;
36599;SDS011;35385;55.668;37.508;2023-01-15T00:02:39;17.73;;;10.38;;
36599;SDS011;35385;55.668;37.508;2023-01-15T00:03:40;18.70;;;10.17;;
36599;SDS011;35385;55.668;37.508;2023-01-15T00:04:40;18.57;;;10.40;;
36599;SDS011;35385;55.668;37.508;2023-01-15T00:05:41;16.83;;;10.60;;
36599;SDS011;35385;55.668;37.508;2023-01-15T00:06:41;14.70;;;10.30;;
36599;SDS011;35385;55.668;37.508;2023-01-15T00:07:42;17.23;;;10.50;;
36599;SDS011;35385;55.668;37.508;2023-01-15T00:08:43;23.43;;;11.47;;
36599;SDS011;35385;55.668;37.508;2023-01-15T00:09:44;18.90;;;10.65;;
36599;SDS011;35385;55.668;37.508;2023-01-15T00:10:44;21.70;;;11.50;;
36599;SDS011;35385;55.668;37.508;2023-01-15T00:11:45;26.20;;;12.83;;
36599;SDS011;35385;55.668;37.508;2023-01-15T00:12:45;18.73;;;11.50;;
36599;SDS011;35385;55.668;37.508;2023-01-15T00:13:46;19.33;;;11.17;;
36599;SDS011;35385;55.668;37.508;2023-01-15T00:14:47;17.80;;;11.23;;
36599;SDS011;35385;55.668;37.508;2023-01-15T00:15:48;15.33;;;11.43;;
36599;SDS011;35385;55.668;37.508;2023-01-15T00:16:51;22.53;;;11.87;;
36599;SDS011;35385;55.668;37.508;2023-01-15T00:17:52;21.90;;;12.15;;
36599;SDS011;35385;55.668;37.508;2023-01-15T00:18:54;19.43;;;10.87;;
36599;SDS011;35385;55.668;37.508;2023-01-15T00:19:56;20.83;;;11.68;;
36599;SDS011;35385;55.668;37.508;2023-01-15T00:20:57;23.03;;;11.47;;
36599;SDS011;35385;55.668;37.508;2023-01-15T00:22:02;20.60;;;11.15;;
36599;SDS011;35385;55.668;37.508;2023-01-15T00:23:02;21.00;;;10.83;;
36599;SDS011;35385;55.668;37.508;2023-01-15T00:24:03;18.10;;;10.50;;
36599;SDS011;35385;55.668;37.508;2023-01-15T00:25:22;17.73;;;10.38;;
36599;SDS011;35385;55.668;37.508;2023-01-15T00:26:41;17.23;;;10.75;;
36599;SDS011;35385;55.668;37.508;2023-01-15T00:28:20;18.40;;;10.35;;
36599;SDS011;35385;55.668;37.508;2023-01-15T00:29:21;22.90;;;10.23;;
36599;SDS011;35385;55.668;37.508;2023-01-15T00:30:22;21.95;;;10.05;;
36599;SDS011;35385;55.668;37.508;2023-01-15T00:31:24;18.80;;;10.60;;
36599;SDS011;35385;55.668;37.508;2023-01-15T00:32:24;16.20;;;10.57;;
36599;SDS011;35385;55.668;37.508;2023-01-15T00:33:26;18.00;;;11.07;;
36599;SDS011;35385;55.668;37.508;2023-01-15T00:34:27;17.23;;;10.60;;
36599;SDS011;35385;55.668;37.508;2023-01-15T00:35:28;19.58;;;10.55;;
36599;SDS011;35385;55.668;37.508;2023-01-15T00:36:29;21.63;;;10.70;;
36599;SDS011;35385;55.668;37.508;2023-01-15T00:37:30;17.05;;;10.48;;
36599;SDS011;35385;55.668;37.508;2023-01-15T00:38:30;17.33;;;10.60;;
36599;SDS011;35385;55.668;37.508;2023-01-15T00:39:31;14.93;;;10.57;;
36599;SDS011;35385;55.668;37.508;2023-01-15T00:40:33;19.15;;;9.82;;
36599;SDS011;35385;55.668;37.508;2023-01-15T00:41:34;20.07;;;10.17;;
36599;SDS011;35385;55.668;37.508;2023-01-15T00:42:34;17.57;;;10.40;;
36599;SDS011;35385;55.668;37.508;2023-01-15T00:43:35;24.30;;;11.20;;
36599;SDS011;35385;55.668;37.508;2023-01-15T00:44:35;18.37;;;10.27;;
36599;SDS011;35385;55.668;37.508;2023-01-15T00:45:36;25.57;;;11.60;;
36599;SDS011;35385;55.668;37.508;2023-01-15T00:46:36;21.20;;;11.37;;
36599;SDS011;35385;55.668;37.508;2023-01-15T00:47:38;20.07;;;10.70;;
36599;SDS011;35385;55.668;37.508;2023-01-15T00:48:40;19.75;;;10.90;;
36599;SDS011;35385;55.668;37.508;2023-01-15T00:49:41;18.13;;;11.47;;
36599;SDS011;35385;55.668;37.508;2023-01-15T00:50:41;22.17;;;10.80;;
36599;SDS011;35385;55.668;37.508;2023-01-15T00:51:42;19.43;;;10.93;;
36599;SDS011;35385;55.668;37.508;2023-01-15T00:52:42;24.03;;;11.33;;
36599;SDS011;35385;55.668;37.508;2023-01-15T00:53:43;18.80;;;10.37;;
36599;SDS011;35385;55.668;37.508;2023-01-15T00:54:43;19.13;;;11.63;;
36599;SDS011;35385;55.668;37.508;2023-01-15T00:55:44;19.20;;;10.63;;
36599;SDS011;35385;55.668;37.508;2023-01-15T00:56:45;25.13;;;11.70;;
36599;SDS011;35385;55.668;37.508;2023-01-15T00:57:45;26.47;;;11.57;;
36599;SDS011;35385;55.668;37.508;2023-01-15T00:58:46;24.87;;;10.47;;
36599;SDS011;35385;55.668;37.508;2023-01-15T00:59:46;18.92;;;10.82;;
36599;SDS011;35385;55.668;37.508;2023-01-15T01:00:54;18.80;;;10.40;;
36599;SDS011;35385;55.668;37.508;2023-01-15T01:01:58;17.02;;;10.25;;
36599;SDS011;35385;55.668;37.508;2023-01-15T01:02:59;20.70;;;11.63;;
36599;SDS011;35385;55.668;37.508;2023-01-15T01:03:59;21.07;;;10.63;;
36599;SDS011;35385;55.668;37.508;2023-01-15T01:05:00;22.63;;;11.32;;
36599;SDS011;35385;55.668;37.508;2023-01-15T01:06:01;17.23;;;10.87;;
36599;SDS011;35385;55.668;37.508;2023-01-15T01:07:01;20.88;;;10.90;;
36599;SDS011;35385;55.668;37.508;2023-01-15T01:08:02;23.97;;;11.30;;
36599;SDS011;35385;55.668;37.508;2023-01-15T01:09:03;17.30;;;10.37;;
36599;SDS011;35385;55.668;37.508;2023-01-15T01:10:03;21.17;;;10.23;;
36599;SDS011;35385;55.668;37.508;2023-01-15T01:11:05;21.02;;;10.32;;
36599;SDS011;35385;55.668;37.508;2023-01-15T01:12:08;24.70;;;11.82;;
36599;SDS011;35385;55.668;37.508;2023-01-15T01:13:09;23.20;;;12.77;;
36599;SDS011;35385;55.668;37.508;2023-01-15T01:14:10;22.83;;;11.57;;
36599;SDS011;35385;55.668;37.508;2023-01-15T01:15:11;19.88;;;11.25;;
36599;SDS011;35385;55.668;37.508;2023-01-15T01:16:21;16.03;;;10.10;;
36599;SDS011;35385;55.668;37.508;2023-01-15T01:17:25;22.73;;;10.90;;
36599;SDS011;35385;55.668;37.508;2023-01-15T01:18:25;26.30;;;12.13;;
36599;SDS011;35385;55.668;37.508;2023-01-15T01:19:26;19.60;;;10.85;;
36599;SDS011;35385;55.668;37.508;2023-01-15T01:20:27;26.30;;;11.13;;
36599;SDS011;35385;55.668;37.508;2023-01-15T01:21:28;20.38;;;11.13;;
36599;SDS011;35385;55.668;37.508;2023-01-15T01:22:29;23.80;;;11.57;;
36599;SDS011;35385;55.668;37.508;2023-01-15T01:23:30;21.70;;;11.70;;
36599;SDS011;35385;55.668;37.508;2023-01-15T01:24:31;20.85;;;12.05;;
36599;SDS011;35385;55.668;37.508;2023-01-15T01:25:32;22.10;;;11.47;;
36599;SDS011;35385;55.668;37.508;2023-01-15T01:26:33;23.53;;;10.97;;
36599;SDS011;35385;55.668;37.508;2023-01-15T01:27:34;17.63;;;10.68;;
36599;SDS011;35385;55.668;37.508;2023-01-15T01:28:34;20.85;;;11.27;;
36599;SDS011;35385;55.668;37.508;2023-01-15T01:29:35;24.37;;;10.67;;
36599;SDS011;35385;55.668;37.508;2023-01-15T01:30:38;20.90;;;11.70;;
36599;SDS011;35385;55.668;37.508;2023-01-15T01:31:39;21.85;;;10.60;;
36599;SDS011;35385;55.668;37.508;2023-01-15T01:32:42;20.97;;;12.43;;
36599;SDS011;35385;55.668;37.508;2023-01-15T01:33:46;17.42;;;10.40;;
36599;SDS011;35385;55.668;37.508;2023-01-15T01:34:48;21.05;;;10.90;;
36599;SDS011;35385;55.668;37.508;2023-01-15T01:35:49;19.50;;;10.70;;
36599;SDS011;35385;55.668;37.508;2023-01-15T01:36:49;22.40;;;10.80;;
36599;SDS011;35385;55.668;37.508;2023-01-15T01:37:50;23.00;;;10.03;;
36599;SDS011;35385;55.668;37.508;2023-01-15T01:38:51;24.85;;;10.35;;
36599;SDS011;35385;55.668;37.508;2023-01-15T01:39:51;19.23;;;10.03;;
36599;SDS011;35385;55.668;37.508;2023-01-15T01:40:52;17.57;;;9.70;;
36599;SDS011;35385;55.668;37.508;2023-01-15T01:41:52;20.80;;;10.60;;
36599;SDS011;35385;55.668;37.508;2023-01-15T01:42:53;17.67;;;10.67;;
36599;SDS011;35385;55.668;37.508;2023-01-15T01:44:01;20.93;;;10.43;;
36599;SDS011;35385;55.668;37.508;2023-01-15T01:45:37;19.10;;;10.43;;
36599;SDS011;35385;55.668;37.508;2023-01-15T01:46:35;21.10;;;10.40;;
36599;SDS011;35385;55.668;37.508;2023-01-15T01:47:35;25.20;;;10.30;;
36599;SDS011;35385;55.668;37.508;2023-01-15T01:48:36;17.63;;;10.07;;
36599;SDS011;35385;55.668;37.508;2023-01-15T01:49:37;21.87;;;10.10;;
36599;SDS011;35385;55.668;37.508;2023-01-15T01:50:39;20.60;;;10.18;;
36599;SDS011;35385;55.668;37.508;2023-01-15T01:51:44;21.75;;;10.07;;
36599;SDS011;35385;55.668;37.508;2023-01-15T01:53:10;17.90;;;10.88;;
36599;SDS011;35385;55.668;37.508;2023-01-15T01:54:16;20.30;;;10.25;;
36599;SDS011;35385;55.668;37.508;2023-01-15T01:55:20;20.10;;;10.27;;
36599;SDS011;35385;55.668;37.508;2023-01-15T01:56:23;22.40;;;10.63;;
36599;SDS011;35385;55.668;37.508;2023-01-15T01:57:24;16.45;;;9.80;;
36599;SDS011;35385;55.668;37.508;2023-01-15T01:58:25;20.87;;;10.80;;
36599;SDS011;35385;55.668;37.508;2023-01-15T01:59:30;23.02;;;10.07;;
36599;SDS011;35385;55.668;37.508;2023-01-15T02:00:31;17.90;;;9.50;;
36599;SDS011;35385;55.668;37.508;2023-01-15T02:01:35;23.98;;;11.05;;
36599;SDS011;35385;55.668;37.508;2023-01-15T02:02:35;20.53;;;9.97;;
36599;SDS011;35385;55.668;37.508;2023-01-15T02:03:36;21.20;;;11.30;;
36599;SDS011;35385;55.668;37.508;2023-01-15T02:04:37;18.43;;;10.73;;
36599;SDS011;35385;55.668;37.508;2023-01-15T02:06:42;21.13;;;9.90;;
36599;SDS011;35385;55.668;37.508;2023-01-15T02:07:43;21.37;;;10.90;;
36599;SDS011;35385;55.668;37.508;2023-01-15T02:08:43;18.23;;;11.00;;
36599;SDS011;35385;55.668;37.508;2023-01-15T02:09:44;17.43;;;10.53;;
36599;SDS011;35385;55.668;37.508;2023-01-15T02:10:46;25.70;;;10.83;;
36599;SDS011;35385;55.668;37.508;2023-01-15T02:11:51;18.42;;;10.80;;
36599;SDS011;35385;55.668;37.508;2023-01-15T02:14:44;19.98;;;10.32;;
36599;SDS011;35385;55.668;37.508;2023-01-15T02:15:28;22.20;;;10.20;;
36599;SDS011;35385;55.668;37.508;2023-01-15T02:17:48;18.05;;;10.05;;
36599;SDS011;35385;55.668;37.508;2023-01-15T02:20:31;20.65;;;9.93;;
36599;SDS011;35385;55.668;37.508;2023-01-15T02:21:43;21.20;;;10.35;;
36599;SDS011;35385;55.668;37.508;2023-01-15T02:24:17;17.70;;;9.98;;
36599;SDS011;35385;55.668;37.508;2023-01-15T02:25:38;20.17;;;9.90;;
36599;SDS011;35385;55.668;37.508;2023-01-15T02:28:14;20.95;;;10.88;;
36599;SDS011;35385;55.668;37.508;2023-01-15T02:29:23;23.55;;;10.95;;
36599;SDS011;35385;55.668;37.508;2023-01-15T02:30:38;25.08;;;10.15;;
36599;SDS011;35385;55.668;37.508;2023-01-15T02:31:44;27.13;;;11.00;;
36599;SDS011;35385;55.668;37.508;2023-01-15T02:32:52;21.75;;;10.50;;
36599;SDS011;35385;55.668;37.508;2023-01-15T02:34:01;27.55;;;10.77;;
36599;SDS011;35385;55.668;37.508;2023-01-15T02:35:07;19.15;;;10.75;;
36599;SDS011;35385;55.668;37.508;2023-01-15T02:36:19;19.27;;;10.23;;
36599;SDS011;35385;55.668;37.508;2023-01-15T02:37:25;17.95;;;10.50;;
36599;SDS011;35385;55.668;37.508;2023-01-15T02:38:28;23.23;;;10.15;;
36599;SDS011;35385;55.668;37.508;2023-01-15T02:39:35;26.98;;;11.15;;
36599;SDS011;35385;55.668;37.508;2023-01-15T02:40:39;23.67;;;11.38;;
36599;SDS011;35385;55.668;37.508;2023-01-15T02:41:46;21.15;;;10.25;;
36599;SDS011;35385;55.668;37.508;2023-01-15T02:42:51;24.10;;;11.55;;
36599;SDS011;35385;55.668;37.508;2023-01-15T02:43:54;19.35;;;10.82;;
36599;SDS011;35385;55.668;37.508;2023-01-15T02:44:57;22.55;;;10.93;;
36599;SDS011;35385;55.668;37.508;2023-01-15T02:46:02;22.45;;;11.50;;
36599;SDS011;35385;55.668;37.508;2023-01-15T02:47:04;18.25;;;10.52;;
36599;SDS011;35385;55.668;37.508;2023-01-15T02:48:10;19.65;;;10.82;;
36599;SDS011;35385;55.668;37.508;2023-01-15T02:49:14;25.30;;;11.93;;
36599;SDS011;35385;55.668;37.508;2023-01-15T02:50:18;21.13;;;10.50;;
36599;SDS011;35385;55.668;37.508;2023-01-15T02:51:26;26.80;;;11.90;;
36599;SDS011;35385;55.668;37.508;2023-01-15T02:52:37;21.65;;;10.98;;
36599;SDS011;35385;55.668;37.508;2023-01-15T02:53:43;19.90;;;11.20;;
36599;SDS011;35385;55.668;37.508;2023-01-15T02:54:49;26.00;;;11.50;;
36599;SDS011;35385;55.668;37.508;2023-01-15T02:55:56;27.27;;;11.15;;
36599;SDS011;35385;55.668;37.508;2023-01-15T02:57:02;21.42;;;10.85;;
36599;SDS011;35385;55.668;37.508;2023-01-15T02:58:05;25.80;;;10.45;;
36599;SDS011;35385;55.668;37.508;2023-01-15T02:59:13;23.95;;;10.23;;
36599;SDS011;35385;55.668;37.508;2023-01-15T03:00:18;30.80;;;11.40;;
36599;SDS011;35385;55.668;37.508;2023-01-15T03:01:23;23.67;;;11.45;;
36599;SDS011;35385;55.668;37.508;2023-01-15T03:02:38;30.17;;;11.38;;
36599;SDS011;35385;55.668;37.508;2023-01-15T03:05:59;20.48;;;10.90;;
36599;SDS011;35385;55.668;37.508;2023-01-15T03:07:17;19.80;;;10.68;;
36599;SDS011;35385;55.668;37.508;2023-01-15T03:08:21;19.60;;;10.75;;
36599;SDS011;35385;55.668;37.508;2023-01-15T03:09:22;22.58;;;10.68;;
36599;SDS011;35385;55.668;37.508;2023-01-15T03:10:29;24.45;;;11.45;;
36599;SDS011;35385;55.668;37.508;2023-01-15T03:11:43;26.20;;;11.50;;
36599;SDS011;35385;55.668;37.508;2023-01-15T03:13:06;22.90;;;11.05;;
36599;SDS011;35385;55.668;37.508;2023-01-15T03:14:18;21.45;;;10.15;;
36599;SDS011;35385;55.668;37.508;2023-01-15T03:15:22;25.13;;;11.48;;
36599;SDS011;35385;55.668;37.508;2023-01-15T03:16:49;24.33;;;11.45;;
36599;SDS011;35385;55.668;37.508;2023-01-15T03:17:54;25.17;;;11.45;;
36599;SDS011;35385;55.668;37.508;2023-01-15T03:18:57;30.60;;;12.73;;
36599;SDS011;35385;55.668;37.508;2023-01-15T03:20:06;22.33;;;10.88;;
36599;SDS011;35385;55.668;37.508;2023-01-15T03:21:12;24.67;;;10.50;;
36599;SDS011;35385;55.668;37.508;2023-01-15T03:22:42;23.73;;;10.85;;
36599;SDS011;35385;55.668;37.508;2023-01-15T03:23:44;23.20;;;11.02;;
36599;SDS011;35385;55.668;37.508;2023-01-15T03:24:51;29.63;;;11.95;;
36599;SDS011;35385;55.668;37.508;2023-01-15T03:26:04;19.38;;;10.52;;
36599;SDS011;35385;55.668;37.508;2023-01-15T03:27:05;22.20;;;10.60;;
36599;SDS011;35385;55.668;37.508;2023-01-15T03:28:06;20.77;;;11.00;;
36599;SDS011;35385;55.668;37.508;2023-01-15T03:29:09;20.85;;;10.73;;
36599;SDS011;35385;55.668;37.508;2023-01-15T03:30:12;23.83;;;11.20;;
36599;SDS011;35385;55.668;37.508;2023-01-15T03:31:15;20.02;;;10.98;;
36599;SDS011;35385;55.668;37.508;2023-01-15T03:32:15;26.47;;;11.30;;
36599;SDS011;35385;55.668;37.508;2023-01-15T03:33:17;26.27;;;11.07;;
36599;SDS011;35385;55.668;37.508;2023-01-15T03:34:18;25.97;;;10.97;;
36599;SDS011;35385;55.668;37.508;2023-01-15T03:36:39;26.40;;;10.75;;
36599;SDS011;35385;55.668;37.508;2023-01-15T03:37:39;24.13;;;11.60;;
36599;SDS011;35385;55.668;37.508;2023-01-15T03:38:40;30.00;;;11.47;;
36599;SDS011;35385;55.668;37.508;2023-01-15T03:39:40;24.73;;;11.50;;
36599;SDS011;35385;55.668;37.508;2023-01-15T03:40:52;26.35;;;11.50;;
36599;SDS011;35385;55.668;37.508;2023-01-15T03:46:13;25.58;;;11.52;;
36599;SDS011;35385;55.668;37.508;2023-01-15T03:48:33;22.35;;;11.02;;
36599;SDS011;35385;55.668;37.508;2023-01-15T03:50:13;21.85;;;11.38;;
36599;SDS011;35385;55.668;37.508;2023-01-15T03:51:26;21.23;;;10.90;;
36599;SDS011;35385;55.668;37.508;2023-01-15T03:54:06;24.50;;;10.88;;
36599;SDS011;35385;55.668;37.508;2023-01-15T03:55:19;27.58;;;11.60;;
36599;SDS011;35385;55.668;37.508;2023-01-15T03:57:42;26.10;;;11.75;;
36599;SDS011;35385;55.668;37.508;2023-01-15T04:00:06;26.33;;;11.95;;
36599;SDS011;35385;55.668;37.508;2023-01-15T04:01:11;25.40;;;10.75;;
36599;SDS011;35385;55.668;37.508;2023-01-15T04:02:15;25.80;;;11.20;;
36599;SDS011;35385;55.668;37.508;2023-01-15T04:03:18;29.52;;;12.20;;
36599;SDS011;35385;55.668;37.508;2023-01-15T04:04:22;28.80;;;11.50;;
36599;SDS011;35385;55.668;37.508;2023-01-15T04:05:23;21.27;;;11.02;;
36599;SDS011;35385;55.668;37.508;2023-01-15T04:06:27;22.92;;;11.80;;
36599;SDS011;35385;55.668;37.508;2023-01-15T04:07:29;24.30;;;11.77;;
36599;SDS011;35385;55.668;37.508;2023-01-15T04:08:32;23.17;;;11.35;;
36599;SDS011;35385;55.668;37.508;2023-01-15T04:09:37;26.67;;;11.30;;
36599;SDS011;35385;55.668;37.508;2023-01-15T04:10:52;22.10;;;10.90;;
36599;SDS011;35385;55.668;37.508;2023-01-15T04:11:57;21.92;;;11.75;;
36599;SDS011;35385;55.668;37.508;2023-01-15T04:12:58;27.58;;;12.30;;
36599;SDS011;35385;55.668;37.508;2023-01-15T04:13:58;25.57;;;11.10;;
36599;SDS011;35385;55.668;37.508;2023-01-15T04:14:59;27.63;;;12.57;;
36599;SDS011;35385;55.668;37.508;2023-01-15T04:15:59;22.07;;;11.67;;
36599;SDS011;35385;55.668;37.508;2023-01-15T04:17:00;27.57;;;12.70;;
36599;SDS011;35385;55.668;37.508;2023-01-15T04:18:01;30.30;;;12.03;;
36599;SDS011;35385;55.668;37.508;2023-01-15T04:19:01;17.77;;;10.97;;
36599;SDS011;35385;55.668;37.508;2023-01-15T04:20:04;24.57;;;12.13;;
36599;SDS011;35385;55.668;37.508;2023-01-15T04:21:05;27.15;;;11.35;;
36599;SDS011;35385;55.668;37.508;2023-01-15T04:22:06;26.53;;;11.73;;
36599;SDS011;35385;55.668;37.508;2023-01-15T04:23:08;22.80;;;11.75;;
36599;SDS011;35385;55.668;37.508;2023-01-15T04:24:09;23.73;;;10.98;;
36599;SDS011;35385;55.668;37.508;2023-01-15T04:25:10;27.63;;;11.93;;
36599;SDS011;35385;55.668;37.508;2023-01-15T04:26:11;36.30;;;11.48;;
36599;SDS011;35385;55.668;37.508;2023-01-15T04:27:12;36.63;;;12.50;;
36599;SDS011;35385;55.668;37.508;2023-01-15T04:28:13;25.80;;;11.47;;
36599;SDS011;35385;55.668;37.508;2023-01-15T04:29:13;23.70;;;11.60;;
36599;SDS011;35385;55.668;37.508;2023-01-15T04:30:14;32.23;;;13.50;;
36599;SDS011;35385;55.668;37.508;2023-01-15T04:31:16;27.33;;;11.48;;
36599;SDS011;35385;55.668;37.508;2023-01-15T04:32:17;36.13;;;12.07;;
36599;SDS011;35385;55.668;37.508;2023-01-15T04:33:18;32.07;;;12.57;;
36599;SDS011;35385;55.668;37.508;2023-01-15T04:34:18;30.57;;;12.70;;
36599;SDS011;35385;55.668;37.508;2023-01-15T04:35:19;27.80;;;11.83;;
36599;SDS011;35385;55.668;37.508;2023-01-15T04:36:19;28.70;;;12.00;;
36599;SDS011;35385;55.668;37.508;2023-01-15T04:37:20;29.27;;;12.47;;
36599;SDS011;35385;55.668;37.508;2023-01-15T04:38:20;31.67;;;14.03;;
36599;SDS011;35385;55.668;37.508;2023-01-15T04:39:21;25.70;;;12.23;;
36599;SDS011;35385;55.668;37.508;2023-01-15T04:40:22;26.08;;;11.63;;
36599;SDS011;35385;55.668;37.508;2023-01-15T04:41:41;24.95;;;12.15;;
36599;SDS011;35385;55.668;37.508;2023-01-15T04:43:00;27.52;;;11.45;;
36599;SDS011;35385;55.668;37.508;2023-01-15T04:44:19;30.35;;;11.98;;
36599;SDS011;35385;55.668;37.508;2023-01-15T04:45:20;29.93;;;11.50;;
36599;SDS011;35385;55.668;37.508;2023-01-15T04:46:21;29.13;;;12.87;;
36599;SDS011;35385;55.668;37.508;2023-01-15T04:48:23;27.08;;;11.88;;
36599;SDS011;35385;55.668;37.508;2023-01-15T04:49:23;28.52;;;11.68;;
36599;SDS011;35385;55.668;37.508;2023-01-15T04:50:24;25.25;;;11.80;;
36599;SDS011;35385;55.668;37.508;2023-01-15T04:51:25;24.83;;;12.23;;
36599;SDS011;35385;55.668;37.508;2023-01-15T04:52:26;35.20;;;12.20;;
36599;SDS011;35385;55.668;37.508;2023-01-15T04:53:26;30.73;;;12.57;;
36599;SDS011;35385;55.668;37.508;2023-01-15T04:54:27;28.27;;;11.10;;
36599;SDS011;35385;55.668;37.508;2023-01-15T04:55:28;24.15;;;12.95;;
36599;SDS011;35385;55.668;37.508;2023-01-15T04:56:29;28.15;;;13.13;;
36599;SDS011;35385;55.668;37.508;2023-01-15T04:57:30;33.63;;;12.40;;
36599;SDS011;35385;55.668;37.508;2023-01-15T04:58:30;31.70;;;12.00;;
36599;SDS011;35385;55.668;37.508;2023-01-15T04:59:32;28.73;;;12.73;;
36599;SDS011;35385;55.668;37.508;2023-01-15T05:00:33;29.47;;;12.27;;
36599;SDS011;35385;55.668;37.508;2023-01-15T05:01:33;35.70;;;13.17;;
36599;SDS011;35385;55.668;37.508;2023-01-15T05:02:34;28.33;;;12.63;;
36599;SDS011;35385;55.668;37.508;2023-01-15T05:03:34;36.93;;;13.50;;
36599;SDS011;35385;55.668;37.508;2023-01-15T05:04:35;29.70;;;12.93;;
36599;SDS011;35385;55.668;37.508;2023-01-15T05:05:36;27.57;;;13.27;;
36599;SDS011;35385;55.668;37.508;2023-01-15T05:06:36;34.37;;;13.50;;
36599;SDS011;35385;55.668;37.508;2023-01-15T05:07:37;28.33;;;12.47;;
36599;SDS011;35385;55.668;37.508;2023-01-15T05:08:38;34.90;;;12.70;;
36599;SDS011;35385;55.668;37.508;2023-01-15T05:09:38;36.03;;;13.07;;
36599;SDS011;35385;55.668;37.508;2023-01-15T05:10:39;31.10;;;13.67;;
36599;SDS011;35385;55.668;37.508;2023-01-15T05:11:39;26.83;;;12.87;;
36599;SDS011;35385;55.668;37.508;2023-01-15T05:12:40;32.53;;;13.07;;
36599;SDS011;35385;55.668;37.508;2023-01-15T05:13:41;32.23;;;12.87;;
36599;SDS011;35385;55.668;37.508;2023-01-15T05:14:41;31.10;;;13.17;;
36599;SDS011;35385;55.668;37.508;2023-01-15T05:15:42;29.73;;;13.57;;
36599;SDS011;35385;55.668;37.508;2023-01-15T05:16:46;30.15;;;12.73;;
36599;SDS011;35385;55.668;37.508;2023-01-15T05:17:47;31.73;;;13.37;;
36599;SDS011;35385;55.668;37.508;2023-01-15T05:18:47;29.47;;;13.03;;
36599;SDS011;35385;55.668;37.508;2023-01-15T05:19:48;28.83;;;13.00;;
36599;SDS011;35385;55.668;37.508;2023-01-15T05:20:48;27.20;;;12.17;;
36599;SDS011;35385;55.668;37.508;2023-01-15T05:21:50;28.67;;;12.65;;
36599;SDS011;35385;55.668;37.508;2023-01-15T05:22:50;32.77;;;13.53;;
36599;SDS011;35385;55.668;37.508;2023-01-15T05:23:52;24.40;;;12.10;;
36599;SDS011;35385;55.668;37.508;2023-01-15T05:24:54;40.95;;;13.98;;
36599;SDS011;35385;55.668;37.508;2023-01-15T05:25:54;35.27;;;13.47;;
36599;SDS011;35385;55.668;37.508;2023-01-15T05:26:55;24.50;;;11.80;;
36599;SDS011;35385;55.668;37.508;2023-01-15T05:27:57;29.50;;;11.77;;
36599;SDS011;35385;55.668;37.508;2023-01-15T05:28:58;32.77;;;12.63;;
36599;SDS011;35385;55.668;37.508;2023-01-15T05:29:59;30.80;;;12.70;;
36599;SDS011;35385;55.668;37.508;2023-01-15T05:31:10;28.70;;;12.73;;
36599;SDS011;35385;55.668;37.508;2023-01-15T05:32:12;30.52;;;13.57;;
36599;SDS011;35385;55.668;37.508;2023-01-15T05:33:12;31.47;;;13.57;;
36599;SDS011;35385;55.668;37.508;2023-01-15T05:34:13;33.93;;;13.07;;
36599;SDS011;35385;55.668;37.508;2023-01-15T05:35:14;29.73;;;12.40;;
36599;SDS011;35385;55.668;37.508;2023-01-15T05:36:15;29.13;;;13.13;;
36599;SDS011;35385;55.668;37.508;2023-01-15T05:37:17;31.55;;;13.20;;
36599;SDS011;35385;55.668;37.508;2023-01-15T05:38:18;36.27;;;13.33;;
36599;SDS011;35385;55.668;37.508;2023-01-15T05:39:18;31.00;;;12.73;;
36599;SDS011;35385;55.668;37.508;2023-01-15T05:40:19;36.47;;;13.83;;
36599;SDS011;35385;55.668;37.508;2023-01-15T05:41:20;31.93;;;13.07;;
36599;SDS011;35385;55.668;37.508;2023-01-15T05:42:39;34.63;;;12.88;;
36599;SDS011;35385;55.668;37.508;2023-01-15T05:43:40;31.33;;;13.50;;
36599;SDS011;35385;55.668;37.508;2023-01-15T05:44:40;32.30;;;13.00;;
36599;SDS011;35385;55.668;37.508;2023-01-15T05:45:41;33.60;;;12.60;;
36599;SDS011;35385;55.668;37.508;2023-01-15T05:46:42;38.80;;;12.53;;
36599;SDS011;35385;55.668;37.508;2023-01-15T05:47:43;37.42;;;12.68;;
36599;SDS011;35385;55.668;37.508;2023-01-15T05:48:44;31.27;;;13.20;;
36599;SDS011;35385;55.668;37.508;2023-01-15T05:49:45;33.63;;;13.93;;
36599;SDS011;35385;55.668;37.508;2023-01-15T05:50:47;33.70;;;12.93;;
36599;SDS011;35385;55.668;37.508;2023-01-15T05:51:48;37.50;;;14.17;;
36599;SDS011;35385;55.668;37.508;2023-01-15T05:52:49;33.25;;;13.05;;
36599;SDS011;35385;55.668;37.508;2023-01-15T05:53:49;39.13;;;12.53;;
36599;SDS011;35385;55.668;37.508;2023-01-15T05:54:50;36.27;;;13.17;;
36599;SDS011;35385;55.668;37.508;2023-01-15T05:55:50;28.13;;;13.13;;
36599;SDS011;35385;55.668;37.508;2023-01-15T05:56:51;34.73;;;13.53;;
36599;SDS011;35385;55.668;37.508;2023-01-15T05:57:52;29.52;;;13.10;;
36599;SDS011;35385;55.668;37.508;2023-01-15T05:58:53;35.33;;;12.93;;
36599;SDS011;35385;55.668;37.508;2023-01-15T05:59:54;34.22;;;12.88;;
36599;SDS011;35385;55.668;37.508;2023-01-15T06:00:55;30.70;;;12.38;;
36599;SDS011;35385;55.668;37.508;2023-01-15T06:01:56;38.43;;;13.67;;
36599;SDS011;35385;55.668;37.508;2023-01-15T06:02:57;30.70;;;13.27;;
36599;SDS011;35385;55.668;37.508;2023-01-15T06:03:58;26.83;;;12.90;;
36599;SDS011;35385;55.668;37.508;2023-01-15T06:05:03;33.75;;;12.80;;
36599;SDS011;35385;55.668;37.508;2023-01-15T06:06:04;31.17;;;13.20;;
36599;SDS011;35385;55.668;37.508;2023-01-15T06:07:05;30.50;;;13.10;;
36599;SDS011;35385;55.668;37.508;2023-01-15T06:08:06;31.77;;;12.30;;
36599;SDS011;35385;55.668;37.508;2023-01-15T06:09:06;38.40;;;13.83;;
36599;SDS011;35385;55.668;37.508;2023-01-15T06:10:07;35.53;;;13.65;;
36599;SDS011;35385;55.668;37.508;2023-01-15T06:11:08;30.83;;;13.60;;
36599;SDS011;35385;55.668;37.508;2023-01-15T06:13:10;39.08;;;13.48;;
36599;SDS011;35385;55.668;37.508;2023-01-15T06:14:11;31.05;;;13.25;;
36599;SDS011;35385;55.668;37.508;2023-01-15T06:15:12;39.90;;;14.80;;
36599;SDS011;35385;55.668;37.508;2023-01-15T06:16:12;35.27;;;13.27;;
36599;SDS011;35385;55.668;37.508;2023-01-15T06:17:13;39.57;;;13.37;;
36599;SDS011;35385;55.668;37.508;2023-01-15T06:18:14;37.20;;;14.43;;
36599;SDS011;35385;55.668;37.508;2023-01-15T06:19:14;34.70;;;13.37;;
36599;SDS011;35385;55.668;37.508;2023-01-15T06:20:15;44.07;;;14.17;;
36599;SDS011;35385;55.668;37.508;2023-01-15T06:21:15;38.43;;;13.40;;
36599;SDS011;35385;55.668;37.508;2023-01-15T06:22:16;34.40;;;13.97;;
36599;SDS011;35385;55.668;37.508;2023-01-15T06:23:17;36.87;;;13.77;;
36599;SDS011;35385;55.668;37.508;2023-01-15T06:24:18;35.60;;;12.63;;
36599;SDS011;35385;55.668;37.508;2023-01-15T06:26:20;38.72;;;12.80;;
36599;SDS011;35385;55.668;37.508;2023-01-15T06:27:20;27.07;;;12.70;;
36599;SDS011;35385;55.668;37.508;2023-01-15T06:28:21;34.03;;;13.90;;
36599;SDS011;35385;55.668;37.508;2023-01-15T06:29:21;39.37;;;13.87;;